sensor_id;sensor_type;location;lat;lon;timestamp;P1;durP1;ratioP1;P2;durP2;ratioP2
22270;SDS011;11304;53.520;10.104;2024-02-26T00:00:11;25.20;;;6.28;;
22270;SDS011;11304;53.520;10.104;2024-02-26T00:02:37;6.63;;;5.20;;
22270;SDS011;11304;53.520;10.104;2024-02-26T00:05:05;6.57;;;5.75;;
22270;SDS011;11304;53.520;10.104;2024-02-26T00:07:31;7.65;;;6.40;;
22270;SDS011;11304;53.520;10.104;2024-02-26T00:09:57;7.85;;;6.28;;
22270;SDS011;11304;53.520;10.104;2024-02-26T00:12:23;8.23;;;6.40;;
22270;SDS011;11304;53.520;10.104;2024-02-26T00:14:49;7.72;;;6.30;;
22270;SDS011;11304;53.520;10.104;2024-02-26T00:17:17;8.15;;;6.32;;
22270;SDS011;11304;53.520;10.104;2024-02-26T00:19:43;8.68;;;6.63;;
22270;SDS011;11304;53.520;10.104;2024-02-26T00:22:09;7.70;;;6.55;;
22270;SDS011;11304;53.520;10.104;2024-02-26T00:24:35;8.20;;;6.97;;
22270;SDS011;11304;53.520;10.104;2024-02-26T00:27:01;8.00;;;6.20;;
22270;SDS011;11304;53.520;10.104;2024-02-26T00:29:28;7.63;;;6.05;;
22270;SDS011;11304;53.520;10.104;2024-02-26T00:31:54;7.25;;;6.30;;
22270;SDS011;11304;53.520;10.104;2024-02-26T00:34:20;193.13;;;12.07;;
22270;SDS011;11304;53.520;10.104;2024-02-26T00:36:46;20.45;;;8.63;;
22270;SDS011;11304;53.520;10.104;2024-02-26T00:39:12;10.55;;;7.47;;
22270;SDS011;11304;53.520;10.104;2024-02-26T00:41:39;10.38;;;7.07;;
22270;SDS011;11304;53.520;10.104;2024-02-26T00:44:05;7.50;;;6.45;;
22270;SDS011;11304;53.520;10.104;2024-02-26T00:46:32;6.97;;;6.13;;
22270;SDS011;11304;53.520;10.104;2024-02-26T00:48:58;12.50;;;6.10;;
22270;SDS011;11304;53.520;10.104;2024-02-26T00:51:25;7.70;;;5.57;;
22270;SDS011;11304;53.520;10.104;2024-02-26T00:53:51;7.70;;;6.75;;
22270;SDS011;11304;53.520;10.104;2024-02-26T00:56:17;7.85;;;6.63;;
22270;SDS011;11304;53.520;10.104;2024-02-26T00:58:43;28.35;;;8.65;;
22270;SDS011;11304;53.520;10.104;2024-02-26T01:01:09;8.73;;;7.30;;
22270;SDS011;11304;53.520;10.104;2024-02-26T01:03:35;9.77;;;7.28;;
22270;SDS011;11304;53.520;10.104;2024-02-26T01:06:01;7.97;;;6.70;;
22270;SDS011;11304;53.520;10.104;2024-02-26T01:08:27;9.52;;;6.57;;
22270;SDS011;11304;53.520;10.104;2024-02-26T01:10:53;8.43;;;6.90;;
22270;SDS011;11304;53.520;10.104;2024-02-26T01:13:19;13.02;;;8.00;;
22270;SDS011;11304;53.520;10.104;2024-02-26T01:15:45;7.95;;;6.68;;
22270;SDS011;11304;53.520;10.104;2024-02-26T01:18:11;7.72;;;6.55;;
22270;SDS011;11304;53.520;10.104;2024-02-26T01:20:37;6.97;;;6.18;;
22270;SDS011;11304;53.520;10.104;2024-02-26T01:23:04;6.68;;;5.53;;
22270;SDS011;11304;53.520;10.104;2024-02-26T01:25:30;8.18;;;6.63;;
22270;SDS011;11304;53.520;10.104;2024-02-26T01:27:56;8.32;;;6.57;;
22270;SDS011;11304;53.520;10.104;2024-02-26T01:30:22;9.38;;;6.97;;
22270;SDS011;11304;53.520;10.104;2024-02-26T01:32:48;10.10;;;7.70;;
22270;SDS011;11304;53.520;10.104;2024-02-26T01:35:14;9.50;;;6.93;;
22270;SDS011;11304;53.520;10.104;2024-02-26T01:37:40;10.25;;;7.63;;
22270;SDS011;11304;53.520;10.104;2024-02-26T01:40:07;10.20;;;7.80;;
22270;SDS011;11304;53.520;10.104;2024-02-26T01:42:34;8.70;;;7.20;;
22270;SDS011;11304;53.520;10.104;2024-02-26T01:45:00;12.90;;;9.60;;
22270;SDS011;11304;53.520;10.104;2024-02-26T01:47:27;9.68;;;8.18;;
22270;SDS011;11304;53.520;10.104;2024-02-26T01:49:53;9.15;;;7.13;;
22270;SDS011;11304;53.520;10.104;2024-02-26T01:52:19;8.98;;;7.13;;
22270;SDS011;11304;53.520;10.104;2024-02-26T01:54:47;9.13;;;6.88;;
22270;SDS011;11304;53.520;10.104;2024-02-26T01:57:13;8.27;;;6.93;;
22270;SDS011;11304;53.520;10.104;2024-02-26T01:59:39;7.68;;;6.60;;
22270;SDS011;11304;53.520;10.104;2024-02-26T02:02:06;6.78;;;5.32;;
22270;SDS011;11304;53.520;10.104;2024-02-26T02:04:36;10.45;;;8.00;;
22270;SDS011;11304;53.520;10.104;2024-02-26T02:07:02;6.53;;;5.78;;
22270;SDS011;11304;53.520;10.104;2024-02-26T02:09:28;8.80;;;7.13;;
22270;SDS011;11304;53.520;10.104;2024-02-26T02:11:54;9.95;;;8.00;;
22270;SDS011;11304;53.520;10.104;2024-02-26T02:14:20;9.50;;;7.53;;
22270;SDS011;11304;53.520;10.104;2024-02-26T02:16:47;11.57;;;9.43;;
22270;SDS011;11304;53.520;10.104;2024-02-26T02:19:13;11.93;;;10.73;;
22270;SDS011;11304;53.520;10.104;2024-02-26T02:21:39;10.63;;;8.48;;
22270;SDS011;11304;53.520;10.104;2024-02-26T02:24:05;10.85;;;8.75;;
22270;SDS011;11304;53.520;10.104;2024-02-26T02:26:31;15.68;;;10.68;;
22270;SDS011;11304;53.520;10.104;2024-02-26T02:28:57;10.85;;;9.05;;
22270;SDS011;11304;53.520;10.104;2024-02-26T02:31:24;13.43;;;9.70;;
22270;SDS011;11304;53.520;10.104;2024-02-26T02:33:50;10.60;;;8.50;;
22270;SDS011;11304;53.520;10.104;2024-02-26T02:36:17;10.68;;;8.20;;
22270;SDS011;11304;53.520;10.104;2024-02-26T02:38:49;12.77;;;9.38;;
22270;SDS011;11304;53.520;10.104;2024-02-26T02:41:15;9.90;;;8.13;;
22270;SDS011;11304;53.520;10.104;2024-02-26T02:43:41;11.93;;;9.68;;
22270;SDS011;11304;53.520;10.104;2024-02-26T02:46:07;12.18;;;9.65;;
22270;SDS011;11304;53.520;10.104;2024-02-26T02:48:34;13.05;;;9.55;;
22270;SDS011;11304;53.520;10.104;2024-02-26T02:51:00;12.27;;;10.07;;
22270;SDS011;11304;53.520;10.104;2024-02-26T02:53:26;10.40;;;8.40;;
22270;SDS011;11304;53.520;10.104;2024-02-26T02:55:52;12.10;;;7.80;;
22270;SDS011;11304;53.520;10.104;2024-02-26T02:58:18;12.68;;;8.73;;
22270;SDS011;11304;53.520;10.104;2024-02-26T03:00:44;15.35;;;10.57;;
22270;SDS011;11304;53.520;10.104;2024-02-26T03:03:10;13.48;;;9.82;;
22270;SDS011;11304;53.520;10.104;2024-02-26T03:05:36;12.65;;;9.27;;
22270;SDS011;11304;53.520;10.104;2024-02-26T03:08:02;13.88;;;9.27;;
22270;SDS011;11304;53.520;10.104;2024-02-26T03:10:28;11.45;;;8.57;;
22270;SDS011;11304;53.520;10.104;2024-02-26T03:12:54;11.55;;;8.57;;
22270;SDS011;11304;53.520;10.104;2024-02-26T03:15:21;11.82;;;8.70;;
22270;SDS011;11304;53.520;10.104;2024-02-26T03:17:47;12.38;;;9.15;;
22270;SDS011;11304;53.520;10.104;2024-02-26T03:20:13;9.90;;;8.00;;
22270;SDS011;11304;53.520;10.104;2024-02-26T03:22:39;12.15;;;9.57;;
22270;SDS011;11304;53.520;10.104;2024-02-26T03:25:06;17.15;;;11.73;;
22270;SDS011;11304;53.520;10.104;2024-02-26T03:27:32;14.32;;;10.50;;
22270;SDS011;11304;53.520;10.104;2024-02-26T03:29:58;12.02;;;9.43;;
22270;SDS011;11304;53.520;10.104;2024-02-26T03:32:24;12.93;;;9.68;;
22270;SDS011;11304;53.520;10.104;2024-02-26T03:34:50;12.82;;;9.98;;
22270;SDS011;11304;53.520;10.104;2024-02-26T03:39:45;14.93;;;11.60;;
22270;SDS011;11304;53.520;10.104;2024-02-26T03:42:11;18.08;;;12.10;;
22270;SDS011;11304;53.520;10.104;2024-02-26T03:44:37;14.88;;;11.55;;
22270;SDS011;11304;53.520;10.104;2024-02-26T03:47:03;18.70;;;12.48;;
22270;SDS011;11304;53.520;10.104;2024-02-26T03:49:29;15.50;;;11.38;;
22270;SDS011;11304;53.520;10.104;2024-02-26T03:51:55;13.80;;;10.82;;
22270;SDS011;11304;53.520;10.104;2024-02-26T03:54:21;15.93;;;12.18;;
22270;SDS011;11304;53.520;10.104;2024-02-26T03:56:47;14.38;;;10.45;;
22270;SDS011;11304;53.520;10.104;2024-02-26T03:59:13;14.98;;;11.13;;
22270;SDS011;11304;53.520;10.104;2024-02-26T04:01:44;13.82;;;10.20;;
22270;SDS011;11304;53.520;10.104;2024-02-26T04:04:10;14.95;;;10.80;;
22270;SDS011;11304;53.520;10.104;2024-02-26T04:06:36;16.48;;;10.60;;
22270;SDS011;11304;53.520;10.104;2024-02-26T04:09:02;15.48;;;10.85;;
22270;SDS011;11304;53.520;10.104;2024-02-26T04:11:29;15.82;;;11.20;;
22270;SDS011;11304;53.520;10.104;2024-02-26T04:13:55;14.32;;;10.80;;
22270;SDS011;11304;53.520;10.104;2024-02-26T04:16:21;14.75;;;10.73;;
22270;SDS011;11304;53.520;10.104;2024-02-26T04:18:47;14.00;;;10.65;;
22270;SDS011;11304;53.520;10.104;2024-02-26T04:21:14;13.20;;;10.20;;
22270;SDS011;11304;53.520;10.104;2024-02-26T04:23:40;17.55;;;12.00;;
22270;SDS011;11304;53.520;10.104;2024-02-26T04:26:06;34.05;;;12.88;;
22270;SDS011;11304;53.520;10.104;2024-02-26T04:28:32;16.70;;;11.82;;
22270;SDS011;11304;53.520;10.104;2024-02-26T04:30:58;17.25;;;11.88;;
22270;SDS011;11304;53.520;10.104;2024-02-26T04:33:24;15.90;;;11.23;;
22270;SDS011;11304;53.520;10.104;2024-02-26T04:35:50;13.77;;;10.30;;
22270;SDS011;11304;53.520;10.104;2024-02-26T04:38:16;15.60;;;12.00;;
22270;SDS011;11304;53.520;10.104;2024-02-26T04:40:42;15.05;;;11.00;;
22270;SDS011;11304;53.520;10.104;2024-02-26T04:43:08;14.45;;;10.98;;
22270;SDS011;11304;53.520;10.104;2024-02-26T04:45:34;13.98;;;10.00;;
22270;SDS011;11304;53.520;10.104;2024-02-26T04:48:00;19.83;;;12.35;;
22270;SDS011;11304;53.520;10.104;2024-02-26T04:50:26;15.65;;;10.88;;
22270;SDS011;11304;53.520;10.104;2024-02-26T04:52:52;17.05;;;11.43;;
22270;SDS011;11304;53.520;10.104;2024-02-26T04:55:18;24.65;;;10.95;;
22270;SDS011;11304;53.520;10.104;2024-02-26T04:57:44;16.13;;;8.20;;
22270;SDS011;11304;53.520;10.104;2024-02-26T05:00:11;12.18;;;9.45;;
22270;SDS011;11304;53.520;10.104;2024-02-26T05:02:37;8.98;;;7.13;;
22270;SDS011;11304;53.520;10.104;2024-02-26T05:05:06;12.98;;;10.43;;
22270;SDS011;11304;53.520;10.104;2024-02-26T05:07:33;15.40;;;10.88;;
22270;SDS011;11304;53.520;10.104;2024-02-26T05:09:59;14.57;;;11.25;;
22270;SDS011;11304;53.520;10.104;2024-02-26T05:12:25;16.50;;;12.50;;
22270;SDS011;11304;53.520;10.104;2024-02-26T05:14:51;90.95;;;14.95;;
22270;SDS011;11304;53.520;10.104;2024-02-26T05:17:17;15.68;;;11.38;;
22270;SDS011;11304;53.520;10.104;2024-02-26T05:19:43;16.45;;;11.73;;
22270;SDS011;11304;53.520;10.104;2024-02-26T05:22:10;18.45;;;12.30;;
22270;SDS011;11304;53.520;10.104;2024-02-26T05:24:37;15.85;;;11.40;;
22270;SDS011;11304;53.520;10.104;2024-02-26T05:27:03;25.02;;;16.40;;
22270;SDS011;11304;53.520;10.104;2024-02-26T05:29:30;23.00;;;15.52;;
22270;SDS011;11304;53.520;10.104;2024-02-26T05:31:56;18.85;;;14.10;;
22270;SDS011;11304;53.520;10.104;2024-02-26T05:34:22;22.15;;;13.32;;
22270;SDS011;11304;53.520;10.104;2024-02-26T05:36:48;19.50;;;12.93;;
22270;SDS011;11304;53.520;10.104;2024-02-26T05:39:14;16.42;;;12.00;;
22270;SDS011;11304;53.520;10.104;2024-02-26T05:41:41;16.30;;;11.85;;
22270;SDS011;11304;53.520;10.104;2024-02-26T05:44:08;18.33;;;11.35;;
22270;SDS011;11304;53.520;10.104;2024-02-26T05:46:35;16.30;;;12.23;;
22270;SDS011;11304;53.520;10.104;2024-02-26T05:49:01;15.55;;;10.68;;
22270;SDS011;11304;53.520;10.104;2024-02-26T05:51:28;17.70;;;11.70;;
22270;SDS011;11304;53.520;10.104;2024-02-26T05:53:54;17.75;;;12.00;;
22270;SDS011;11304;53.520;10.104;2024-02-26T05:56:23;17.20;;;11.98;;
22270;SDS011;11304;53.520;10.104;2024-02-26T05:58:49;16.55;;;11.18;;
22270;SDS011;11304;53.520;10.104;2024-02-26T06:01:16;15.45;;;10.20;;
22270;SDS011;11304;53.520;10.104;2024-02-26T06:03:42;14.43;;;10.90;;
22270;SDS011;11304;53.520;10.104;2024-02-26T06:06:08;13.70;;;10.25;;
22270;SDS011;11304;53.520;10.104;2024-02-26T06:08:34;17.30;;;12.13;;
22270;SDS011;11304;53.520;10.104;2024-02-26T06:11:04;17.58;;;12.50;;
22270;SDS011;11304;53.520;10.104;2024-02-26T06:13:30;17.88;;;12.68;;
22270;SDS011;11304;53.520;10.104;2024-02-26T06:15:56;19.73;;;12.65;;
22270;SDS011;11304;53.520;10.104;2024-02-26T06:18:22;21.70;;;13.88;;
22270;SDS011;11304;53.520;10.104;2024-02-26T06:20:48;20.98;;;14.15;;
22270;SDS011;11304;53.520;10.104;2024-02-26T06:23:15;18.83;;;13.85;;
22270;SDS011;11304;53.520;10.104;2024-02-26T06:25:42;16.70;;;12.40;;
22270;SDS011;11304;53.520;10.104;2024-02-26T06:28:08;15.60;;;12.07;;
22270;SDS011;11304;53.520;10.104;2024-02-26T06:30:34;18.17;;;13.00;;
22270;SDS011;11304;53.520;10.104;2024-02-26T06:33:01;20.05;;;13.45;;
22270;SDS011;11304;53.520;10.104;2024-02-26T06:35:28;18.58;;;13.00;;
22270;SDS011;11304;53.520;10.104;2024-02-26T06:37:54;19.08;;;13.80;;
22270;SDS011;11304;53.520;10.104;2024-02-26T06:40:20;17.45;;;12.27;;
22270;SDS011;11304;53.520;10.104;2024-02-26T06:42:47;17.63;;;12.85;;
22270;SDS011;11304;53.520;10.104;2024-02-26T06:45:13;19.65;;;14.52;;
22270;SDS011;11304;53.520;10.104;2024-02-26T06:47:39;22.17;;;14.05;;
22270;SDS011;11304;53.520;10.104;2024-02-26T06:50:05;21.33;;;14.82;;
22270;SDS011;11304;53.520;10.104;2024-02-26T06:52:31;23.63;;;15.27;;
22270;SDS011;11304;53.520;10.104;2024-02-26T06:54:57;21.67;;;15.25;;
22270;SDS011;11304;53.520;10.104;2024-02-26T06:57:23;20.13;;;14.75;;
22270;SDS011;11304;53.520;10.104;2024-02-26T06:59:49;21.85;;;15.52;;
22270;SDS011;11304;53.520;10.104;2024-02-26T07:02:15;22.02;;;15.85;;
22270;SDS011;11304;53.520;10.104;2024-02-26T07:04:42;21.63;;;16.42;;
22270;SDS011;11304;53.520;10.104;2024-02-26T07:07:08;21.02;;;16.05;;
22270;SDS011;11304;53.520;10.104;2024-02-26T07:09:34;22.73;;;15.68;;
22270;SDS011;11304;53.520;10.104;2024-02-26T07:12:00;21.63;;;14.70;;
22270;SDS011;11304;53.520;10.104;2024-02-26T07:14:27;22.27;;;16.15;;
22270;SDS011;11304;53.520;10.104;2024-02-26T07:16:53;19.35;;;15.75;;
22270;SDS011;11304;53.520;10.104;2024-02-26T07:19:19;22.60;;;16.38;;
22270;SDS011;11304;53.520;10.104;2024-02-26T07:21:45;23.52;;;16.70;;
22270;SDS011;11304;53.520;10.104;2024-02-26T07:24:11;19.60;;;15.30;;
22270;SDS011;11304;53.520;10.104;2024-02-26T07:26:37;24.70;;;16.98;;
22270;SDS011;11304;53.520;10.104;2024-02-26T07:29:03;22.98;;;17.60;;
22270;SDS011;11304;53.520;10.104;2024-02-26T07:31:30;23.23;;;17.08;;
22270;SDS011;11304;53.520;10.104;2024-02-26T07:33:56;22.40;;;16.30;;
22270;SDS011;11304;53.520;10.104;2024-02-26T07:36:22;26.58;;;19.08;;
22270;SDS011;11304;53.520;10.104;2024-02-26T07:38:48;22.33;;;16.00;;
22270;SDS011;11304;53.520;10.104;2024-02-26T07:41:14;23.17;;;16.75;;
22270;SDS011;11304;53.520;10.104;2024-02-26T07:43:40;19.08;;;14.50;;
22270;SDS011;11304;53.520;10.104;2024-02-26T07:46:06;19.00;;;14.18;;
22270;SDS011;11304;53.520;10.104;2024-02-26T07:48:32;22.13;;;16.20;;
22270;SDS011;11304;53.520;10.104;2024-02-26T07:50:59;24.55;;;17.92;;
22270;SDS011;11304;53.520;10.104;2024-02-26T07:53:25;23.05;;;15.98;;
22270;SDS011;11304;53.520;10.104;2024-02-26T07:55:51;21.30;;;15.95;;
22270;SDS011;11304;53.520;10.104;2024-02-26T07:58:17;20.17;;;15.15;;
22270;SDS011;11304;53.520;10.104;2024-02-26T08:00:43;20.10;;;15.57;;
22270;SDS011;11304;53.520;10.104;2024-02-26T08:03:11;22.87;;;15.70;;
22270;SDS011;11304;53.520;10.104;2024-02-26T08:05:38;23.17;;;16.55;;
22270;SDS011;11304;53.520;10.104;2024-02-26T08:08:06;21.55;;;14.95;;
22270;SDS011;11304;53.520;10.104;2024-02-26T08:10:32;18.77;;;14.77;;
22270;SDS011;11304;53.520;10.104;2024-02-26T08:12:58;20.02;;;14.63;;
22270;SDS011;11304;53.520;10.104;2024-02-26T08:15:30;18.83;;;14.50;;
22270;SDS011;11304;53.520;10.104;2024-02-26T08:17:57;20.27;;;14.80;;
22270;SDS011;11304;53.520;10.104;2024-02-26T08:20:23;21.10;;;14.75;;
22270;SDS011;11304;53.520;10.104;2024-02-26T08:22:49;17.92;;;14.40;;
22270;SDS011;11304;53.520;10.104;2024-02-26T08:25:15;17.90;;;14.90;;
22270;SDS011;11304;53.520;10.104;2024-02-26T08:27:43;20.77;;;14.65;;
22270;SDS011;11304;53.520;10.104;2024-02-26T08:30:09;18.48;;;14.68;;
22270;SDS011;11304;53.520;10.104;2024-02-26T08:32:35;17.38;;;13.60;;
22270;SDS011;11304;53.520;10.104;2024-02-26T08:35:01;19.40;;;13.90;;
22270;SDS011;11304;53.520;10.104;2024-02-26T08:37:28;19.85;;;15.38;;
22270;SDS011;11304;53.520;10.104;2024-02-26T08:39:54;19.67;;;15.15;;
22270;SDS011;11304;53.520;10.104;2024-02-26T08:42:20;18.10;;;14.02;;
22270;SDS011;11304;53.520;10.104;2024-02-26T08:44:46;18.92;;;13.90;;
22270;SDS011;11304;53.520;10.104;2024-02-26T08:47:12;15.27;;;12.70;;
22270;SDS011;11304;53.520;10.104;2024-02-26T08:49:42;17.83;;;14.07;;
22270;SDS011;11304;53.520;10.104;2024-02-26T08:52:08;16.80;;;12.82;;
22270;SDS011;11304;53.520;10.104;2024-02-26T08:54:34;17.38;;;13.00;;
22270;SDS011;11304;53.520;10.104;2024-02-26T08:57:00;16.70;;;13.00;;
22270;SDS011;11304;53.520;10.104;2024-02-26T08:59:26;16.60;;;12.52;;
22270;SDS011;11304;53.520;10.104;2024-02-26T09:01:52;15.52;;;12.50;;
22270;SDS011;11304;53.520;10.104;2024-02-26T09:04:18;15.13;;;13.25;;
22270;SDS011;11304;53.520;10.104;2024-02-26T09:06:44;17.20;;;13.77;;
22270;SDS011;11304;53.520;10.104;2024-02-26T09:09:10;16.65;;;13.40;;
22270;SDS011;11304;53.520;10.104;2024-02-26T09:11:36;15.43;;;13.35;;
22270;SDS011;11304;53.520;10.104;2024-02-26T09:14:03;14.80;;;12.48;;
22270;SDS011;11304;53.520;10.104;2024-02-26T09:16:29;15.02;;;12.55;;
22270;SDS011;11304;53.520;10.104;2024-02-26T09:18:56;17.58;;;14.38;;
22270;SDS011;11304;53.520;10.104;2024-02-26T09:21:22;14.88;;;12.57;;
22270;SDS011;11304;53.520;10.104;2024-02-26T09:23:49;17.83;;;12.60;;
22270;SDS011;11304;53.520;10.104;2024-02-26T09:26:15;15.77;;;11.50;;
22270;SDS011;11304;53.520;10.104;2024-02-26T09:28:42;18.00;;;11.98;;
22270;SDS011;11304;53.520;10.104;2024-02-26T09:31:08;15.23;;;12.10;;
22270;SDS011;11304;53.520;10.104;2024-02-26T09:33:34;13.38;;;11.23;;
22270;SDS011;11304;53.520;10.104;2024-02-26T09:36:00;13.30;;;11.48;;
22270;SDS011;11304;53.520;10.104;2024-02-26T09:38:27;15.48;;;10.48;;
22270;SDS011;11304;53.520;10.104;2024-02-26T09:40:53;11.35;;;9.80;;
22270;SDS011;11304;53.520;10.104;2024-02-26T09:43:21;13.43;;;9.10;;
22270;SDS011;11304;53.520;10.104;2024-02-26T09:45:50;10.15;;;8.73;;
22270;SDS011;11304;53.520;10.104;2024-02-26T09:48:16;10.52;;;8.05;;
22270;SDS011;11304;53.520;10.104;2024-02-26T09:50:43;9.23;;;8.27;;
22270;SDS011;11304;53.520;10.104;2024-02-26T09:53:12;8.68;;;7.75;;
22270;SDS011;11304;53.520;10.104;2024-02-26T09:55:40;10.90;;;8.82;;
22270;SDS011;11304;53.520;10.104;2024-02-26T09:58:06;10.70;;;9.00;;
22270;SDS011;11304;53.520;10.104;2024-02-26T10:00:32;10.45;;;8.32;;
22270;SDS011;11304;53.520;10.104;2024-02-26T10:03:03;11.38;;;8.43;;
22270;SDS011;11304;53.520;10.104;2024-02-26T10:05:30;10.32;;;8.10;;
22270;SDS011;11304;53.520;10.104;2024-02-26T10:07:57;10.35;;;8.90;;
22270;SDS011;11304;53.520;10.104;2024-02-26T10:10:26;11.10;;;8.98;;
22270;SDS011;11304;53.520;10.104;2024-02-26T10:12:52;12.13;;;9.23;;
22270;SDS011;11304;53.520;10.104;2024-02-26T10:15:18;12.90;;;9.43;;
22270;SDS011;11304;53.520;10.104;2024-02-26T10:17:44;11.68;;;9.38;;
22270;SDS011;11304;53.520;10.104;2024-02-26T10:20:14;12.15;;;9.52;;
22270;SDS011;11304;53.520;10.104;2024-02-26T10:22:46;11.05;;;9.30;;
22270;SDS011;11304;53.520;10.104;2024-02-26T10:25:12;10.88;;;8.68;;
22270;SDS011;11304;53.520;10.104;2024-02-26T10:27:40;11.30;;;9.40;;
22270;SDS011;11304;53.520;10.104;2024-02-26T10:30:16;11.65;;;9.73;;
22270;SDS011;11304;53.520;10.104;2024-02-26T10:32:44;11.65;;;9.32;;
22270;SDS011;11304;53.520;10.104;2024-02-26T10:35:10;12.43;;;9.55;;
22270;SDS011;11304;53.520;10.104;2024-02-26T10:37:36;11.15;;;8.73;;
22270;SDS011;11304;53.520;10.104;2024-02-26T10:40:02;12.90;;;10.10;;
22270;SDS011;11304;53.520;10.104;2024-02-26T10:42:30;13.57;;;10.02;;
22270;SDS011;11304;53.520;10.104;2024-02-26T10:44:57;13.20;;;9.52;;
22270;SDS011;11304;53.520;10.104;2024-02-26T10:47:23;14.57;;;10.30;;
22270;SDS011;11304;53.520;10.104;2024-02-26T10:49:50;12.20;;;9.70;;
22270;SDS011;11304;53.520;10.104;2024-02-26T10:52:16;13.30;;;9.88;;
22270;SDS011;11304;53.520;10.104;2024-02-26T10:54:46;13.38;;;10.65;;
22270;SDS011;11304;53.520;10.104;2024-02-26T10:57:13;14.07;;;10.20;;
22270;SDS011;11304;53.520;10.104;2024-02-26T10:59:39;15.95;;;11.80;;
22270;SDS011;11304;53.520;10.104;2024-02-26T11:02:08;17.05;;;11.80;;
22270;SDS011;11304;53.520;10.104;2024-02-26T11:04:35;14.75;;;10.93;;
22270;SDS011;11304;53.520;10.104;2024-02-26T11:07:02;15.68;;;11.50;;
22270;SDS011;11304;53.520;10.104;2024-02-26T11:09:29;15.70;;;11.32;;
22270;SDS011;11304;53.520;10.104;2024-02-26T11:11:56;15.05;;;11.05;;
22270;SDS011;11304;53.520;10.104;2024-02-26T11:14:25;16.02;;;11.15;;
22270;SDS011;11304;53.520;10.104;2024-02-26T11:16:52;16.83;;;11.55;;
22270;SDS011;11304;53.520;10.104;2024-02-26T11:19:18;16.95;;;11.00;;
22270;SDS011;11304;53.520;10.104;2024-02-26T11:21:45;14.93;;;11.57;;
22270;SDS011;11304;53.520;10.104;2024-02-26T11:24:14;16.83;;;12.05;;
22270;SDS011;11304;53.520;10.104;2024-02-26T11:26:45;17.77;;;12.20;;
22270;SDS011;11304;53.520;10.104;2024-02-26T11:29:14;17.98;;;13.07;;
22270;SDS011;11304;53.520;10.104;2024-02-26T11:31:41;19.13;;;12.77;;
22270;SDS011;11304;53.520;10.104;2024-02-26T11:34:08;18.50;;;12.50;;
22270;SDS011;11304;53.520;10.104;2024-02-26T11:36:34;17.70;;;12.00;;
22270;SDS011;11304;53.520;10.104;2024-02-26T11:39:03;19.75;;;13.52;;
22270;SDS011;11304;53.520;10.104;2024-02-26T11:41:30;19.25;;;13.93;;
22270;SDS011;11304;53.520;10.104;2024-02-26T11:44:00;20.05;;;14.05;;
22270;SDS011;11304;53.520;10.104;2024-02-26T11:46:26;18.20;;;14.25;;
22270;SDS011;11304;53.520;10.104;2024-02-26T11:49:02;20.15;;;14.90;;
22270;SDS011;11304;53.520;10.104;2024-02-26T11:51:32;23.00;;;15.07;;
22270;SDS011;11304;53.520;10.104;2024-02-26T11:53:59;18.50;;;13.98;;
22270;SDS011;11304;53.520;10.104;2024-02-26T11:56:25;16.45;;;11.88;;
22270;SDS011;11304;53.520;10.104;2024-02-26T11:59:04;18.45;;;12.43;;
22270;SDS011;11304;53.520;10.104;2024-02-26T12:01:50;17.17;;;12.57;;
22270;SDS011;11304;53.520;10.104;2024-02-26T12:04:24;16.65;;;11.50;;
22270;SDS011;11304;53.520;10.104;2024-02-26T12:06:52;18.88;;;12.48;;
22270;SDS011;11304;53.520;10.104;2024-02-26T12:11:56;18.20;;;12.70;;
22270;SDS011;11304;53.520;10.104;2024-02-26T12:14:26;16.45;;;12.00;;
22270;SDS011;11304;53.520;10.104;2024-02-26T12:16:52;16.77;;;12.10;;
22270;SDS011;11304;53.520;10.104;2024-02-26T12:19:18;17.58;;;12.32;;
22270;SDS011;11304;53.520;10.104;2024-02-26T12:21:44;22.27;;;15.55;;
22270;SDS011;11304;53.520;10.104;2024-02-26T12:24:16;18.05;;;13.70;;
22270;SDS011;11304;53.520;10.104;2024-02-26T12:26:45;20.65;;;14.68;;
22270;SDS011;11304;53.520;10.104;2024-02-26T12:29:11;20.73;;;15.55;;
22270;SDS011;11304;53.520;10.104;2024-02-26T12:31:38;21.85;;;14.82;;
22270;SDS011;11304;53.520;10.104;2024-02-26T12:34:05;19.25;;;14.27;;
22270;SDS011;11304;53.520;10.104;2024-02-26T12:36:32;19.23;;;14.50;;
22270;SDS011;11304;53.520;10.104;2024-02-26T12:39:00;18.33;;;13.33;;
22270;SDS011;11304;53.520;10.104;2024-02-26T12:41:27;17.67;;;12.88;;
22270;SDS011;11304;53.520;10.104;2024-02-26T12:43:55;19.33;;;12.80;;
22270;SDS011;11304;53.520;10.104;2024-02-26T12:46:21;18.80;;;13.07;;
22270;SDS011;11304;53.520;10.104;2024-02-26T12:48:48;19.92;;;12.43;;
22270;SDS011;11304;53.520;10.104;2024-02-26T12:51:14;20.13;;;12.55;;
22270;SDS011;11304;53.520;10.104;2024-02-26T12:53:41;19.65;;;13.18;;
22270;SDS011;11304;53.520;10.104;2024-02-26T12:56:09;16.75;;;12.40;;
22270;SDS011;11304;53.520;10.104;2024-02-26T12:58:36;14.80;;;11.40;;
22270;SDS011;11304;53.520;10.104;2024-02-26T13:01:03;16.60;;;10.80;;
22270;SDS011;11304;53.520;10.104;2024-02-26T13:03:30;15.88;;;10.88;;
22270;SDS011;11304;53.520;10.104;2024-02-26T13:05:56;13.85;;;10.35;;
22270;SDS011;11304;53.520;10.104;2024-02-26T13:08:22;15.45;;;11.38;;
22270;SDS011;11304;53.520;10.104;2024-02-26T13:10:49;16.67;;;11.60;;
22270;SDS011;11304;53.520;10.104;2024-02-26T13:13:18;16.40;;;11.73;;
22270;SDS011;11304;53.520;10.104;2024-02-26T13:15:45;16.17;;;11.88;;
22270;SDS011;11304;53.520;10.104;2024-02-26T13:18:11;17.13;;;10.93;;
22270;SDS011;11304;53.520;10.104;2024-02-26T13:20:38;20.15;;;14.50;;
22270;SDS011;11304;53.520;10.104;2024-02-26T13:23:12;22.92;;;15.25;;
22270;SDS011;11304;53.520;10.104;2024-02-26T13:25:38;19.50;;;14.18;;
22270;SDS011;11304;53.520;10.104;2024-02-26T13:30:32;22.85;;;14.45;;
22270;SDS011;11304;53.520;10.104;2024-02-26T13:33:06;18.63;;;13.80;;
22270;SDS011;11304;53.520;10.104;2024-02-26T13:35:33;20.02;;;13.95;;
22270;SDS011;11304;53.520;10.104;2024-02-26T13:38:00;21.73;;;14.63;;
22270;SDS011;11304;53.520;10.104;2024-02-26T13:40:26;20.92;;;14.07;;
22270;SDS011;11304;53.520;10.104;2024-02-26T13:42:52;17.35;;;13.18;;
22270;SDS011;11304;53.520;10.104;2024-02-26T13:45:18;16.65;;;12.35;;
22270;SDS011;11304;53.520;10.104;2024-02-26T13:47:44;18.60;;;12.18;;
22270;SDS011;11304;53.520;10.104;2024-02-26T13:50:10;16.75;;;12.50;;
22270;SDS011;11304;53.520;10.104;2024-02-26T13:52:36;20.17;;;12.43;;
22270;SDS011;11304;53.520;10.104;2024-02-26T13:55:02;19.38;;;12.38;;
22270;SDS011;11304;53.520;10.104;2024-02-26T13:57:28;16.95;;;12.60;;
22270;SDS011;11304;53.520;10.104;2024-02-26T13:59:54;18.90;;;12.30;;
22270;SDS011;11304;53.520;10.104;2024-02-26T14:02:21;15.82;;;11.55;;
22270;SDS011;11304;53.520;10.104;2024-02-26T14:04:47;16.45;;;11.25;;
22270;SDS011;11304;53.520;10.104;2024-02-26T14:07:13;19.45;;;11.70;;
22270;SDS011;11304;53.520;10.104;2024-02-26T14:09:39;15.98;;;10.38;;
22270;SDS011;11304;53.520;10.104;2024-02-26T14:12:05;15.73;;;10.75;;
22270;SDS011;11304;53.520;10.104;2024-02-26T14:14:31;14.65;;;11.57;;
22270;SDS011;11304;53.520;10.104;2024-02-26T14:17:01;14.27;;;10.63;;